createdAt,value
2022-10-31T00:00:44.123Z,98847.56
2022-10-31T00:01:47.112Z,98853.72
2022-10-31T00:02:51.134Z,98852.25
2022-10-31T00:03:54.437Z,98856.81
2022-10-31T00:04:58.631Z,98853.59
2022-10-31T00:06:02.955Z,98856.41
2022-10-31T00:07:06.816Z,98852.16
2022-10-31T00:08:09.662Z,98852.38
2022-10-31T00:09:14.215Z,98853.38
2022-10-31T00:10:17.173Z,98852.69
2022-10-31T00:11:22.434Z,98851.13
2022-10-31T00:12:25.164Z,98850.50
2022-10-31T00:13:29.684Z,98854.25
2022-10-31T00:14:32.473Z,98853.59
2022-10-31T00:15:36.983Z,98856.53
2022-10-31T00:16:41.923Z,98855.91
2022-10-31T00:17:46.036Z,98854.31
2022-10-31T00:18:50.293Z,98855.38
2022-10-31T00:19:54.551Z,98862.44
2022-10-31T00:21:01.554Z,98851.31
2022-10-31T00:22:05.676Z,98851.50
2022-10-31T00:23:08.951Z,98853.41
2022-10-31T00:24:13.560Z,98850.91
2022-10-31T00:25:16.596Z,98861.38
2022-10-31T00:26:22.291Z,98866.78
2022-10-31T00:27:25.165Z,98861.78
2022-10-31T00:28:33.338Z,98862.94
2022-10-31T00:29:36.254Z,98855.34
2022-10-31T00:30:40.384Z,98852.94
2022-10-31T00:31:43.417Z,98860.94
2022-10-31T00:32:47.583Z,98857.72
2022-10-31T00:33:50.635Z,98854.41
2022-10-31T00:34:55.914Z,98853.75
2022-10-31T00:35:59.484Z,98853.03
2022-10-31T00:37:03.561Z,98854.06
2022-10-31T00:38:06.450Z,98861.13
2022-10-31T00:39:10.565Z,98856.94
2022-10-31T00:40:13.714Z,98855.28
2022-10-31T00:41:18.931Z,98857.88
2022-10-31T00:42:23.253Z,98860.47
2022-10-31T00:43:27.151Z,98848.53
2022-10-31T00:44:29.970Z,98852.88
2022-10-31T00:45:33.813Z,98850.41
2022-10-31T00:46:36.615Z,98853.28
2022-10-31T00:47:40.575Z,98856.94
2022-10-31T00:48:43.823Z,98856.09
2022-10-31T00:49:47.724Z,98855.34
2022-10-31T00:50:50.533Z,98859.00
2022-10-31T00:51:54.347Z,98853.88
2022-10-31T00:52:58.173Z,98856.56
2022-10-31T00:54:02.175Z,98855.84
2022-10-31T00:55:05.732Z,98853.34
2022-10-31T00:56:09.882Z,98861.97
2022-10-31T00:57:13.134Z,98858.63
2022-10-31T00:58:19.161Z,98862.16
2022-10-31T00:59:21.922Z,98857.09
2022-10-31T01:00:25.901Z,98864.09
2022-10-31T01:01:29.330Z,98863.38
2022-10-31T01:02:34.092Z,98856.53
2022-10-31T01:03:37.164Z,98869.50
2022-10-31T01:04:41.063Z,98866.09
2022-10-31T01:05:43.935Z,98859.13
2022-10-31T01:06:48.347Z,98865.22
2022-10-31T01:07:52.684Z,98854.25
2022-10-31T01:08:56.524Z,98863.78
2022-10-31T01:09:59.771Z,98863.97
2022-10-31T01:11:07.503Z,98855.66
2022-10-31T01:12:10.354Z,98861.91
2022-10-31T01:13:16.788Z,98862.84
2022-10-31T01:14:23.343Z,98856.19
2022-10-31T01:15:27.766Z,98863.97
2022-10-31T01:16:31.007Z,98860.53
2022-10-31T01:17:35.247Z,98866.56
2022-10-31T01:18:38.775Z,98865.84
2022-10-31T01:19:42.643Z,98864.06
2022-10-31T01:20:45.683Z,98857.13
2022-10-31T01:21:49.763Z,98860.53
2022-10-31T01:22:52.572Z,98863.25
2022-10-31T01:23:57.573Z,98864.06
2022-10-31T01:25:01.113Z,98858.06
2022-10-31T01:26:08.749Z,98861.38
2022-10-31T01:27:11.482Z,98857.94
2022-10-31T01:28:15.833Z,98857.88
2022-10-31T01:29:18.709Z,98856.13
2022-10-31T01:30:23.966Z,98856.13
2022-10-31T01:31:28.919Z,98856.13
2022-10-31T01:32:33.573Z,98863.97
2022-10-31T01:33:36.783Z,98858.06
2022-10-31T01:34:40.613Z,98862.41
2022-10-31T01:35:43.685Z,98858.06
2022-10-31T01:36:52.562Z,98858.06
2022-10-31T01:37:55.450Z,98852.88
2022-10-31T01:39:00.804Z,98858.78
2022-10-31T01:40:03.889Z,98849.25
2022-10-31T01:41:07.852Z,98858.50
2022-10-31T01:42:12.959Z,98853.13
2022-10-31T01:43:16.131Z,98852.13
2022-10-31T01:44:53.388Z,98850.28
2022-10-31T01:46:01.040Z,98850.28
2022-10-31T01:47:07.723Z,98844.88
2022-10-31T01:48:16.133Z,98844.69
2022-10-31T01:49:23.442Z,98842.84
2022-10-31T01:50:32.422Z,98847.09
2022-10-31T01:51:37.781Z,98851.38
2022-10-31T01:52:43.825Z,98847.84
2022-10-31T01:53:47.479Z,98842.53
2022-10-31T01:54:53.711Z,98849.00
2022-10-31T01:55:57.860Z,98846.09
2022-10-31T01:57:01.167Z,98848.31
2022-10-31T01:58:08.269Z,98853.28
2022-10-31T01:59:13.460Z,98840.97
2022-10-31T02:00:18.671Z,98851.97
2022-10-31T02:01:23.074Z,98847.50
2022-10-31T02:02:28.209Z,98855.19
2022-10-31T02:03:32.660Z,98851.56
2022-10-31T02:04:36.560Z,98850.53
2022-10-31T02:06:01.922Z,98847.00
2022-10-31T02:07:07.799Z,98847.75
2022-10-31T02:08:16.158Z,98849.41
2022-10-31T02:09:22.132Z,98858.94
2022-10-31T02:10:26.291Z,98852.09
2022-10-31T02:11:29.975Z,98853.75
2022-10-31T02:12:35.990Z,98847.75
2022-10-31T02:13:40.319Z,98853.03
2022-10-31T02:14:44.491Z,98854.78
2022-10-31T02:15:50.720Z,98852.19
2022-10-31T02:16:55.928Z,98852.28
2022-10-31T02:18:00.062Z,98851.47
2022-10-31T02:19:04.161Z,98848.97
2022-10-31T02:20:15.801Z,98853.34
2022-10-31T02:21:21.021Z,98850.81
2022-10-31T02:22:29.680Z,98861.19
2022-10-31T02:24:03.460Z,98850.00
2022-10-31T02:25:34.392Z,98854.34
2022-10-31T02:26:57.388Z,98849.16
2022-10-31T02:28:27.570Z,98844.81
2022-10-31T02:29:54.961Z,98853.81
2022-10-31T02:31:21.361Z,98857.75
2022-10-31T02:32:28.968Z,98856.19
2022-10-31T02:33:39.000Z,98861.59
2022-10-31T02:34:53.299Z,98860.81
2022-10-31T02:36:05.590Z,98851.59
2022-10-31T02:37:13.639Z,98860.28
2022-10-31T02:38:25.758Z,98856.88
2022-10-31T02:39:32.779Z,98854.28
2022-10-31T02:40:39.718Z,98854.38
2022-10-31T02:42:10.518Z,98859.69
2022-10-31T02:43:17.515Z,98859.69
2022-10-31T02:44:25.410Z,98860.50
2022-10-31T02:45:31.796Z,98866.53
2022-10-31T02:46:41.111Z,98860.50
2022-10-31T02:47:46.790Z,98863.19
2022-10-31T02:48:51.217Z,98875.25
2022-10-31T02:49:57.879Z,98873.53
2022-10-31T02:51:03.900Z,98870.94
2022-10-31T02:52:16.072Z,98870.94
2022-10-31T02:53:19.990Z,98867.47
2022-10-31T02:54:24.700Z,98877.00
2022-10-31T02:55:49.400Z,98865.97
2022-10-31T02:56:56.239Z,98870.63
2022-10-31T02:58:02.773Z,98866.44
2022-10-31T02:59:07.556Z,98874.34
2022-10-31T03:00:12.251Z,98884.91
2022-10-31T03:01:28.875Z,98871.19
2022-10-31T03:02:57.743Z,98869.69
2022-10-31T03:04:28.628Z,98876.84
2022-10-31T03:05:46.300Z,98878.06
2022-10-31T03:06:55.920Z,98880.84
2022-10-31T03:08:03.940Z,98882.06
2022-10-31T03:09:13.010Z,98878.09
2022-10-31T03:10:22.308Z,98873.06
2022-10-31T03:11:30.669Z,98881.06
2022-10-31T03:12:44.465Z,98880.28
2022-10-31T03:13:53.430Z,98884.75
2022-10-31T03:15:09.018Z,98876.22
2022-10-31T03:16:16.461Z,98890.22
2022-10-31T03:17:25.520Z,98884.31
2022-10-31T03:18:32.605Z,98887.91
2022-10-31T03:19:40.451Z,98882.72
2022-10-31T03:20:47.531Z,98886.13
2022-10-31T03:21:52.980Z,98887.91
2022-10-31T03:23:00.077Z,98886.25
2022-10-31T03:24:03.268Z,98883.81
2022-10-31T03:25:08.078Z,98880.59
2022-10-31T03:26:12.669Z,98884.19
2022-10-31T03:27:18.960Z,98879.94
2022-10-31T03:28:26.354Z,98875.69
2022-10-31T03:29:33.490Z,98878.28
2022-10-31T03:30:38.700Z,98875.78
2022-10-31T03:31:54.530Z,98881.97
2022-10-31T03:32:59.702Z,98876.03
2022-10-31T03:34:09.058Z,98878.63
2022-10-31T03:35:13.244Z,98884.84
2022-10-31T03:36:18.700Z,98881.53
2022-10-31T03:37:22.623Z,98878.19
2022-10-31T03:38:26.498Z,98880.03
2022-10-31T03:39:30.400Z,98886.22
2022-10-31T03:40:36.285Z,98878.66
2022-10-31T03:41:42.647Z,98884.84
2022-10-31T03:42:51.321Z,98891.88
2022-10-31T03:44:02.502Z,98886.78
2022-10-31T03:45:09.312Z,98884.19
2022-10-31T03:46:12.100Z,98895.56
2022-10-31T03:47:16.013Z,98892.31
2022-10-31T03:48:20.362Z,98893.22
2022-10-31T03:49:25.621Z,98899.44
2022-10-31T03:50:33.409Z,98896.03
2022-10-31T03:51:44.411Z,98899.44
2022-10-31T03:52:50.988Z,98901.19
2022-10-31T03:53:57.779Z,98898.69
2022-10-31T03:55:04.170Z,98901.34
2022-10-31T03:56:12.480Z,98897.94
2022-10-31T03:57:19.751Z,98903.22
2022-10-31T03:58:26.834Z,98897.28
2022-10-31T03:59:34.140Z,98898.94
2022-10-31T04:00:42.540Z,98902.34
2022-10-31T04:01:49.436Z,98908.41
2022-10-31T04:02:58.683Z,98911.88
2022-10-31T04:04:04.031Z,98899.88
2022-10-31T04:05:10.828Z,98900.78
2022-10-31T04:06:15.983Z,98901.72
2022-10-31T04:07:21.299Z,98905.25
2022-10-31T04:08:28.938Z,98902.81
2022-10-31T04:09:36.324Z,98900.22
2022-10-31T04:10:40.340Z,98904.56
2022-10-31T04:11:49.140Z,98905.56
2022-10-31T04:13:25.753Z,98909.28
2022-10-31T04:14:38.578Z,98911.94
2022-10-31T04:15:44.192Z,98905.09
2022-10-31T04:16:47.369Z,98904.19
2022-10-31T04:17:53.230Z,98906.75
2022-10-31T04:18:57.376Z,98908.44
2022-10-31T04:20:02.560Z,98902.41
2022-10-31T04:21:09.237Z,98906.75
2022-10-31T04:22:13.088Z,98908.63
2022-10-31T04:23:19.989Z,98906.03
2022-10-31T04:24:26.750Z,98906.03
2022-10-31T04:25:29.782Z,98904.44
2022-10-31T04:26:35.670Z,98911.28
2022-10-31T04:27:38.572Z,98915.66
2022-10-31T04:28:44.678Z,98907.94
2022-10-31T04:29:50.801Z,98912.28
2022-10-31T04:30:55.840Z,98910.63
2022-10-31T04:31:59.071Z,98906.28
2022-10-31T04:33:03.355Z,98909.81
2022-10-31T04:34:06.781Z,98915.91
2022-10-31T04:35:11.121Z,98909.03
2022-10-31T04:36:16.531Z,98909.97
2022-10-31T04:37:19.331Z,98915.22
2022-10-31T04:38:25.471Z,98911.81
2022-10-31T04:39:29.339Z,98910.16
2022-10-31T04:40:53.668Z,98910.16
2022-10-31T04:42:14.891Z,98911.16
2022-10-31T04:44:26.334Z,98915.50
2022-10-31T04:45:37.472Z,98911.25
2022-10-31T04:46:40.461Z,98913.84
2022-10-31T04:47:45.476Z,98917.34
2022-10-31T04:48:48.297Z,98907.91
2022-10-31T04:49:53.462Z,98919.09
2022-10-31T04:51:00.751Z,98908.81
2022-10-31T04:52:06.737Z,98909.66
2022-10-31T04:53:09.784Z,98913.16
2022-10-31T04:54:25.796Z,98909.00
2022-10-31T04:55:49.550Z,98910.00
2022-10-31T04:56:56.249Z,98904.19
2022-10-31T04:58:01.169Z,98907.78
2022-10-31T04:59:04.519Z,98901.03
2022-10-31T05:00:22.539Z,98902.75
2022-10-31T05:01:26.920Z,98903.69
2022-10-31T05:02:32.579Z,98912.38
2022-10-31T05:03:35.909Z,98903.78
2022-10-31T05:04:40.198Z,98903.94
2022-10-31T05:05:44.231Z,98910.97
2022-10-31T05:06:50.886Z,98909.38
2022-10-31T05:07:55.632Z,98898.19
2022-10-31T05:09:01.322Z,98908.63
2022-10-31T05:10:05.840Z,98901.69
2022-10-31T05:11:10.760Z,98906.03
2022-10-31T05:12:14.010Z,98906.88
2022-10-31T05:13:36.817Z,98907.69
2022-10-31T05:14:48.782Z,98912.03
2022-10-31T05:16:12.800Z,98902.63
2022-10-31T05:17:46.119Z,98907.94
2022-10-31T05:19:08.589Z,98917.47
2022-10-31T05:20:11.849Z,98914.88
2022-10-31T05:21:35.749Z,98912.38
2022-10-31T05:22:44.009Z,98913.31
2022-10-31T05:23:49.497Z,98911.56
2022-10-31T05:24:53.260Z,98914.97
2022-10-31T05:25:57.119Z,98913.22
2022-10-31T05:26:59.979Z,98914.88
2022-10-31T05:28:04.122Z,98912.28
2022-10-31T05:29:07.398Z,98914.88
2022-10-31T05:30:13.267Z,98913.22
2022-10-31T05:31:17.126Z,98918.47
2022-10-31T05:32:20.991Z,98918.47
2022-10-31T05:33:50.651Z,98921.06
2022-10-31T05:35:28.301Z,98916.81
2022-10-31T05:36:52.083Z,98926.31
2022-10-31T05:37:59.013Z,98928.88
2022-10-31T05:39:04.657Z,98921.13
2022-10-31T05:40:14.131Z,98926.22
2022-10-31T05:41:18.029Z,98927.91
2022-10-31T05:42:23.522Z,98928.72
2022-10-31T05:43:27.418Z,98932.03
2022-10-31T05:44:30.671Z,98926.88
2022-10-31T05:45:58.999Z,98932.91
2022-10-31T05:47:21.289Z,98929.56
2022-10-31T05:48:42.267Z,98927.91
2022-10-31T05:50:07.510Z,98932.13
2022-10-31T05:51:23.145Z,98938.00
2022-10-31T05:52:27.108Z,98939.56
2022-10-31T05:53:38.258Z,98937.66
2022-10-31T05:54:42.669Z,98934.72
2022-10-31T05:55:46.610Z,98945.72
2022-10-31T05:56:59.109Z,98944.66
2022-10-31T05:58:03.252Z,98928.09
2022-10-31T05:59:06.871Z,98933.03
2022-10-31T06:00:11.866Z,98938.88
2022-10-31T06:01:26.871Z,98942.09
2022-10-31T06:02:35.684Z,98940.19
2022-10-31T06:03:57.949Z,98946.03
2022-10-31T06:05:00.866Z,98944.00
2022-10-31T06:06:04.947Z,98955.66
2022-10-31T06:07:17.632Z,98951.81
2022-10-31T06:08:21.458Z,98951.38
2022-10-31T06:09:25.310Z,98956.94
2022-10-31T06:10:30.972Z,98947.97
2022-10-31T06:11:34.230Z,98954.72
2022-10-31T06:12:41.840Z,98951.88
2022-10-31T06:14:01.349Z,98955.59
2022-10-31T06:15:44.330Z,98959.13
2022-10-31T06:16:48.430Z,98949.13
2022-10-31T06:18:11.105Z,98949.31
2022-10-31T06:19:25.250Z,98949.59
2022-10-31T06:20:29.218Z,98955.88
2022-10-31T06:21:40.349Z,98955.22
2022-10-31T06:22:43.084Z,98957.28
2022-10-31T06:23:46.940Z,98954.13
2022-10-31T06:25:23.139Z,98956.78
2022-10-31T06:26:29.073Z,98955.38
2022-10-31T06:27:32.013Z,98958.50
2022-10-31T06:28:42.055Z,98965.91
2022-10-31T06:30:01.587Z,98965.50
2022-10-31T06:31:07.763Z,98959.94
2022-10-31T06:32:13.180Z,98964.81
2022-10-31T06:33:19.199Z,98958.63
2022-10-31T06:34:32.912Z,98962.56
2022-10-31T06:35:36.079Z,98960.50
2022-10-31T06:36:46.984Z,98959.09
2022-10-31T06:37:57.917Z,98958.47
2022-10-31T06:39:13.193Z,98957.03
2022-10-31T06:40:17.370Z,98962.28
2022-10-31T06:41:45.272Z,98962.09
2022-10-31T06:42:49.070Z,98962.91
2022-10-31T06:43:53.031Z,98961.16
2022-10-31T06:45:13.779Z,98962.78
2022-10-31T06:46:48.827Z,98971.44
2022-10-31T06:48:17.188Z,98972.25
2022-10-31T06:49:49.271Z,98976.47
2022-10-31T06:51:01.716Z,98978.31
2022-10-31T06:52:06.327Z,98974.13
2022-10-31T06:54:18.998Z,98970.75
2022-10-31T06:55:23.774Z,98975.91
2022-10-31T06:56:27.604Z,98965.44
2022-10-31T06:57:34.068Z,98965.28
2022-10-31T06:58:38.019Z,98971.09
2022-10-31T06:59:43.211Z,98971.25
2022-10-31T07:01:05.670Z,98972.13
2022-10-31T07:02:10.862Z,98972.84
2022-10-31T07:03:17.767Z,98973.00
2022-10-31T07:04:21.589Z,98971.47
2022-10-31T07:05:25.771Z,98972.31
2022-10-31T07:06:29.799Z,98976.81
2022-10-31T07:07:32.851Z,98981.22
2022-10-31T07:08:36.838Z,98978.13
2022-10-31T07:09:40.910Z,98987.13
2022-10-31T07:10:54.078Z,98978.81
2022-10-31T07:11:57.851Z,98983.56
2022-10-31T07:13:05.199Z,98982.94
2022-10-31T07:14:12.221Z,98982.41
2022-10-31T07:15:15.377Z,98987.94
2022-10-31T07:16:19.202Z,98986.50
2022-10-31T07:17:29.878Z,98986.59
2022-10-31T07:18:37.454Z,98983.25
2022-10-31T07:19:40.398Z,98985.13
2022-10-31T07:20:45.927Z,98990.69
2022-10-31T07:21:48.797Z,98989.22
2022-10-31T07:22:53.667Z,98982.56
2022-10-31T07:23:57.320Z,98977.78
2022-10-31T07:25:19.724Z,98987.16
2022-10-31T07:26:44.084Z,98984.28
2022-10-31T07:27:47.560Z,98986.63
2022-10-31T07:28:52.924Z,98986.41
2022-10-31T07:29:59.045Z,98993.03
2022-10-31T07:31:04.490Z,98993.72
2022-10-31T07:32:07.307Z,98993.50
2022-10-31T07:33:14.229Z,98993.22
2022-10-31T07:34:37.928Z,98999.03
2022-10-31T07:36:08.798Z,98992.84
2022-10-31T07:37:12.281Z,98989.16
2022-10-31T07:38:17.419Z,99002.09
2022-10-31T07:39:21.819Z,98993.19
2022-10-31T07:40:26.273Z,98994.69
2022-10-31T07:41:31.471Z,98993.63
2022-10-31T07:42:37.186Z,98998.72
2022-10-31T07:43:41.925Z,98988.13
2022-10-31T07:45:12.298Z,98995.59
2022-10-31T07:46:44.867Z,98995.44
2022-10-31T07:48:14.720Z,98998.66
2022-10-31T07:49:47.672Z,98998.41
2022-10-31T07:51:10.045Z,99005.00
2022-10-31T07:52:36.999Z,99003.81
2022-10-31T07:54:00.992Z,99007.81
2022-10-31T07:55:08.727Z,99010.19
2022-10-31T07:56:13.457Z,99012.41
2022-10-31T07:57:19.204Z,98997.41
2022-10-31T07:58:26.360Z,99007.50
2022-10-31T07:59:29.078Z,99008.94
2022-10-31T08:00:35.551Z,99000.81
2022-10-31T08:01:39.571Z,99005.66
2022-10-31T08:03:05.574Z,99002.63
2022-10-31T08:04:38.523Z,99003.06
2022-10-31T08:06:15.517Z,99001.72
2022-10-31T08:07:40.950Z,99005.59
2022-10-31T08:08:53.789Z,99001.75
2022-10-31T08:09:56.701Z,99006.44
2022-10-31T08:11:04.330Z,99006.75
2022-10-31T08:12:08.448Z,99008.00
2022-10-31T08:13:15.021Z,99006.91
2022-10-31T08:14:22.358Z,99004.88
2022-10-31T08:15:28.626Z,99002.66
2022-10-31T08:16:35.847Z,98999.75
2022-10-31T08:17:43.419Z,99000.19
2022-10-31T08:18:49.049Z,99002.41
2022-10-31T08:20:00.497Z,98997.59
2022-10-31T08:21:13.558Z,99002.44
2022-10-31T08:22:16.271Z,99001.31
2022-10-31T08:23:21.640Z,98991.41
2022-10-31T08:24:24.652Z,99003.28
2022-10-31T08:25:32.310Z,98992.50
2022-10-31T08:26:40.088Z,98994.84
2022-10-31T08:27:50.433Z,98995.25
2022-10-31T08:28:55.912Z,99007.00
2022-10-31T08:30:01.951Z,99010.84
2022-10-31T08:31:06.976Z,99003.41
2022-10-31T08:32:16.858Z,98990.72
2022-10-31T08:33:39.127Z,98993.59
2022-10-31T08:35:00.563Z,98999.16
2022-10-31T08:36:22.975Z,98996.94
2022-10-31T08:37:46.958Z,98994.72
2022-10-31T08:38:51.121Z,99001.38
2022-10-31T08:39:54.078Z,99001.88
2022-10-31T08:40:58.780Z,98997.34
2022-10-31T08:42:02.608Z,98999.66
2022-10-31T08:43:08.116Z,98997.44
2022-10-31T08:44:12.268Z,98990.13
2022-10-31T08:45:15.296Z,98996.59
2022-10-31T08:46:19.710Z,98997.97
2022-10-31T08:47:25.044Z,98987.88
2022-10-31T08:48:29.025Z,98994.50
2022-10-31T08:49:33.769Z,98996.00
2022-10-31T08:50:38.639Z,98991.16
2022-10-31T08:51:41.401Z,98992.53
2022-10-31T08:53:04.094Z,98991.41
2022-10-31T08:54:10.190Z,98997.03
2022-10-31T08:55:32.330Z,98996.63
2022-10-31T08:56:39.877Z,98997.16
2022-10-31T08:58:00.663Z,98995.91
2022-10-31T08:59:13.411Z,99000.84
2022-10-31T09:00:46.490Z,98998.78
2022-10-31T09:01:53.074Z,99004.41
2022-10-31T09:03:02.097Z,99004.09
2022-10-31T09:04:08.134Z,99006.47
2022-10-31T09:05:12.543Z,99001.88
2022-10-31T09:06:16.483Z,99000.50
2022-10-31T09:07:20.986Z,99003.50
2022-10-31T09:08:25.819Z,98996.00
2022-10-31T09:09:28.751Z,99005.13
2022-10-31T09:10:33.977Z,98999.78
2022-10-31T09:11:40.349Z,98997.41
2022-10-31T09:12:59.764Z,99000.13
2022-10-31T09:14:32.815Z,99000.88
2022-10-31T09:16:01.012Z,99006.88
2022-10-31T09:17:04.529Z,99003.66
2022-10-31T09:18:29.121Z,99010.81
2022-10-31T09:19:34.541Z,99006.91
2022-10-31T09:20:39.501Z,99010.72
2022-10-31T09:21:42.884Z,99006.81
2022-10-31T09:22:46.838Z,99010.63
2022-10-31T09:23:50.851Z,99005.88
2022-10-31T09:24:54.099Z,99008.06
2022-10-31T09:25:58.509Z,99008.44
2022-10-31T09:27:09.688Z,99005.19
2022-10-31T09:28:19.230Z,99009.03
2022-10-31T09:29:23.828Z,99006.75
2022-10-31T09:30:34.239Z,99008.25
2022-10-31T09:31:44.910Z,99010.44
2022-10-31T09:33:20.316Z,99003.91
2022-10-31T09:34:43.081Z,99010.47
2022-10-31T09:35:54.149Z,99005.91
2022-10-31T09:36:59.468Z,99007.25
2022-10-31T09:38:04.830Z,99010.25
2022-10-31T09:39:10.237Z,99008.94
2022-10-31T09:40:15.420Z,99011.09
2022-10-31T09:41:26.664Z,99007.19
2022-10-31T09:42:51.949Z,99016.25
2022-10-31T09:44:04.208Z,99008.06
2022-10-31T09:45:13.332Z,99014.66
2022-10-31T09:46:23.257Z,99011.38
2022-10-31T09:47:37.959Z,99013.56
2022-10-31T09:49:43.829Z,99006.66
2022-10-31T09:50:51.360Z,99017.03
2022-10-31T09:52:20.059Z,99008.81
2022-10-31T09:53:27.656Z,99011.81
2022-10-31T09:54:36.635Z,99010.50
2022-10-31T09:55:42.228Z,99009.19
2022-10-31T09:56:46.567Z,99010.38
2022-10-31T09:57:49.592Z,99013.50
2022-10-31T09:58:56.510Z,99012.03
2022-10-31T10:00:01.138Z,99009.59
2022-10-31T10:01:05.971Z,99009.94
2022-10-31T10:02:16.765Z,99005.84
2022-10-31T10:03:34.320Z,99014.09
2022-10-31T10:04:52.953Z,99004.72
2022-10-31T10:06:03.940Z,99004.25
2022-10-31T10:07:37.149Z,99008.69
2022-10-31T10:08:59.466Z,99004.75
2022-10-31T10:10:29.640Z,99001.44
2022-10-31T10:12:16.200Z,99009.19
2022-10-31T10:13:39.548Z,98998.78
2022-10-31T10:15:02.645Z,98999.94
2022-10-31T10:16:19.700Z,99002.91
2022-10-31T10:17:29.884Z,99004.06
2022-10-31T10:18:41.757Z,99003.41
2022-10-31T10:20:04.226Z,98997.28
2022-10-31T10:21:19.420Z,99000.25
2022-10-31T10:22:31.261Z,99006.03
2022-10-31T10:23:45.834Z,98998.44
2022-10-31T10:25:04.937Z,98996.78
2022-10-31T10:26:17.850Z,98993.47
2022-10-31T10:27:28.337Z,98998.09
2022-10-31T10:28:39.408Z,98993.28
2022-10-31T10:29:47.510Z,98998.69
2022-10-31T10:30:53.577Z,98992.75
2022-10-31T10:31:58.014Z,98994.53
2022-10-31T10:33:06.443Z,98995.66
2022-10-31T10:34:15.902Z,98983.94
2022-10-31T10:35:26.990Z,98989.03
2022-10-31T10:36:35.821Z,98990.53
2022-10-31T10:37:41.098Z,98988.16
2022-10-31T10:38:51.599Z,98987.50
2022-10-31T10:39:57.350Z,98991.09
2022-10-31T10:41:03.499Z,98988.75
2022-10-31T10:42:29.819Z,98982.94
2022-10-31T10:43:35.296Z,98979.59
2022-10-31T10:44:57.604Z,98978.06
2022-10-31T10:46:28.488Z,98979.91
2022-10-31T10:47:42.786Z,98979.00
2022-10-31T10:48:46.899Z,98982.13
2022-10-31T10:49:52.992Z,98972.84
2022-10-31T10:50:57.199Z,98977.63
2022-10-31T10:52:19.432Z,98978.06
2022-10-31T10:53:36.890Z,98983.66
2022-10-31T10:55:01.509Z,98979.66
2022-10-31T10:56:13.526Z,98980.28
2022-10-31T10:57:25.727Z,98975.47
2022-10-31T10:58:29.789Z,98976.75
2022-10-31T10:59:33.858Z,98970.13
2022-10-31T11:00:38.014Z,98971.38
2022-10-31T11:01:43.297Z,98972.88
2022-10-31T11:02:49.009Z,98972.34
2022-10-31T11:03:52.200Z,98973.63
2022-10-31T11:04:57.594Z,98976.56
2022-10-31T11:06:03.070Z,98981.28
2022-10-31T11:07:07.780Z,98976.13
2022-10-31T11:08:11.784Z,98977.41
2022-10-31T11:09:17.225Z,98973.56
2022-10-31T11:10:21.291Z,98974.19
2022-10-31T11:11:32.132Z,98979.16
2022-10-31T11:12:35.442Z,98971.69
2022-10-31T11:13:39.569Z,98974.63
2022-10-31T11:14:49.844Z,98970.41
2022-10-31T11:15:56.891Z,98976.00
2022-10-31T11:17:10.942Z,98973.78
2022-10-31T11:18:22.517Z,98975.06
2022-10-31T11:19:28.789Z,98972.88
2022-10-31T11:20:35.834Z,98972.53
2022-10-31T11:21:40.297Z,98969.50
2022-10-31T11:22:45.093Z,98969.31
2022-10-31T11:23:49.567Z,98970.97
2022-10-31T11:24:53.463Z,98962.47
2022-10-31T11:25:58.333Z,98961.25
2022-10-31T11:27:16.541Z,98968.66
2022-10-31T11:28:19.432Z,98961.16
2022-10-31T11:29:26.186Z,98955.69
2022-10-31T11:30:29.398Z,98957.31
2022-10-31T11:31:34.117Z,98961.44
2022-10-31T11:32:39.153Z,98958.41
2022-10-31T11:33:48.546Z,98959.88
2022-10-31T11:34:55.128Z,98957.03
2022-10-31T11:35:58.879Z,98958.66
2022-10-31T11:37:12.418Z,98953.16
2022-10-31T11:38:19.395Z,98952.19
2022-10-31T11:39:25.197Z,98960.75
2022-10-31T11:40:28.994Z,98960.75
2022-10-31T11:41:35.658Z,98958.38
2022-10-31T11:42:42.011Z,98960.47
2022-10-31T11:43:49.144Z,98958.09
2022-10-31T11:44:54.148Z,98958.38
2022-10-31T11:45:58.517Z,98953.53
2022-10-31T11:47:04.687Z,98954.97
2022-10-31T11:48:19.019Z,98957.06
2022-10-31T11:49:32.953Z,98953.00
2022-10-31T11:50:38.639Z,98955.28
2022-10-31T11:51:42.736Z,98949.59
2022-10-31T11:52:47.109Z,98956.81
2022-10-31T11:54:01.687Z,98950.72
2022-10-31T11:55:18.894Z,98950.97
2022-10-31T11:56:23.166Z,98954.91
2022-10-31T11:57:29.406Z,98948.66
2022-10-31T11:58:33.497Z,98953.38
2022-10-31T11:59:37.320Z,98951.34
2022-10-31T12:00:42.089Z,98944.81
2022-10-31T12:01:50.185Z,98942.81
2022-10-31T12:02:53.334Z,98943.63
2022-10-31T12:04:05.738Z,98939.97
2022-10-31T12:05:12.282Z,98943.44
2022-10-31T12:06:20.227Z,98946.91
2022-10-31T12:07:24.975Z,98941.59
2022-10-31T12:08:33.030Z,98935.28
2022-10-31T12:09:38.207Z,98943.06
2022-10-31T12:10:48.557Z,98941.84
2022-10-31T12:12:12.663Z,98943.94
2022-10-31T12:13:29.648Z,98942.00
2022-10-31T12:14:40.427Z,98933.69
2022-10-31T12:15:48.058Z,98933.72
2022-10-31T12:16:56.385Z,98931.09
2022-10-31T12:18:25.333Z,98934.63
2022-10-31T12:19:38.898Z,98934.66
2022-10-31T12:20:50.860Z,98932.63
2022-10-31T12:22:05.649Z,98931.22
2022-10-31T12:23:17.683Z,98934.31
2022-10-31T12:24:35.414Z,98935.75
2022-10-31T12:25:46.612Z,98940.88
2022-10-31T12:26:58.179Z,98935.34
2022-10-31T12:28:24.219Z,98937.59
2022-10-31T12:29:42.658Z,98923.09
2022-10-31T12:30:57.547Z,98918.84
2022-10-31T12:32:16.674Z,98926.22
2022-10-31T12:33:35.329Z,98928.09
2022-10-31T12:34:50.677Z,98925.28
2022-10-31T12:36:02.511Z,98920.59
2022-10-31T12:37:10.229Z,98926.78
2022-10-31T12:38:26.939Z,98923.31
2022-10-31T12:39:39.790Z,98923.16
2022-10-31T12:40:57.557Z,98927.47
2022-10-31T12:42:07.348Z,98925.63
2022-10-31T12:43:23.273Z,98925.63
2022-10-31T12:45:05.397Z,98924.41
2022-10-31T12:46:12.648Z,98925.63
2022-10-31T12:47:35.630Z,98924.81
2022-10-31T12:49:05.166Z,98918.72
2022-10-31T12:50:20.799Z,98915.03
2022-10-31T12:51:34.248Z,98916.84
2022-10-31T12:52:47.299Z,98915.00
2022-10-31T12:54:03.616Z,98921.94
2022-10-31T12:55:22.198Z,98912.91
2022-10-31T12:56:34.019Z,98913.66
2022-10-31T12:57:41.952Z,98920.59
2022-10-31T12:58:48.297Z,98922.19
2022-10-31T12:59:55.939Z,98917.59
2022-10-31T13:01:15.848Z,98917.47
2022-10-31T13:02:22.457Z,98919.22
2022-10-31T13:03:34.641Z,98914.44
2022-10-31T13:04:45.116Z,98915.19
2022-10-31T13:05:52.147Z,98908.34
2022-10-31T13:06:58.457Z,98920.66
2022-10-31T13:08:06.008Z,98907.47
2022-10-31T13:09:12.078Z,98909.00
2022-10-31T13:10:22.470Z,98913.72
2022-10-31T13:11:30.330Z,98914.84
2022-10-31T13:12:37.460Z,98912.72
2022-10-31T13:13:44.198Z,98910.63
2022-10-31T13:14:50.857Z,98914.25
2022-10-31T13:15:57.577Z,98913.75
2022-10-31T13:17:01.375Z,98916.19
2022-10-31T13:18:08.669Z,98913.66
2022-10-31T13:19:15.162Z,98907.59
2022-10-31T13:20:24.436Z,98912.44
2022-10-31T13:21:31.767Z,98912.16
2022-10-31T13:22:36.985Z,98909.38
2022-10-31T13:23:50.928Z,98907.53
2022-10-31T13:24:59.506Z,98906.94
2022-10-31T13:26:11.327Z,98902.25
2022-10-31T13:27:18.027Z,98906.81
2022-10-31T13:28:28.720Z,98910.56
2022-10-31T13:29:35.608Z,98913.25
2022-10-31T13:30:39.571Z,98907.09
2022-10-31T13:31:44.009Z,98905.50
2022-10-31T13:32:49.448Z,98908.06
2022-10-31T13:33:57.116Z,98902.16
2022-10-31T13:35:00.792Z,98901.63
2022-10-31T13:36:15.540Z,98903.50
2022-10-31T13:37:26.129Z,98907.94